sensor_id;sensor_type;location;lat;lon;timestamp;P1;durP1;ratioP1;P2;durP2;ratioP2
59442;SDS011;45247;47.466;19.004;2022-08-04T00:00:08;4.97;;;3.50;;
59442;SDS011;45247;47.466;19.004;2022-08-04T00:02:42;4.82;;;2.80;;
59442;SDS011;45247;47.466;19.004;2022-08-04T00:05:25;5.20;;;3.60;;
59442;SDS011;45247;47.466;19.004;2022-08-04T00:08:10;4.60;;;3.42;;
59442;SDS011;45247;47.466;19.004;2022-08-04T00:10:47;11.50;;;3.75;;
59442;SDS011;45247;47.466;19.004;2022-08-04T00:13:16;5.22;;;3.30;;
59442;SDS011;45247;47.466;19.004;2022-08-04T00:15:52;6.03;;;3.40;;
59442;SDS011;45247;47.466;19.004;2022-08-04T00:18:26;4.85;;;3.53;;
59442;SDS011;45247;47.466;19.004;2022-08-04T00:20:57;6.23;;;3.30;;
59442;SDS011;45247;47.466;19.004;2022-08-04T00:23:28;5.40;;;3.42;;
59442;SDS011;45247;47.466;19.004;2022-08-04T00:26:19;4.55;;;3.38;;
59442;SDS011;45247;47.466;19.004;2022-08-04T00:28:51;5.68;;;3.53;;
59442;SDS011;45247;47.466;19.004;2022-08-04T00:31:19;4.18;;;3.40;;
59442;SDS011;45247;47.466;19.004;2022-08-04T00:34:09;6.78;;;3.92;;
59442;SDS011;45247;47.466;19.004;2022-08-04T00:36:39;7.53;;;3.88;;
59442;SDS011;45247;47.466;19.004;2022-08-04T00:39:10;5.72;;;3.83;;
59442;SDS011;45247;47.466;19.004;2022-08-04T00:41:42;4.68;;;3.30;;
59442;SDS011;45247;47.466;19.004;2022-08-04T00:44:28;5.15;;;3.75;;
59442;SDS011;45247;47.466;19.004;2022-08-04T00:47:08;7.20;;;4.20;;
59442;SDS011;45247;47.466;19.004;2022-08-04T00:50:07;7.50;;;4.10;;
59442;SDS011;45247;47.466;19.004;2022-08-04T00:52:40;9.38;;;4.47;;
59442;SDS011;45247;47.466;19.004;2022-08-04T00:55:30;4.97;;;4.15;;
59442;SDS011;45247;47.466;19.004;2022-08-04T00:58:19;5.10;;;3.75;;
59442;SDS011;45247;47.466;19.004;2022-08-04T01:00:57;5.35;;;3.67;;
59442;SDS011;45247;47.466;19.004;2022-08-04T01:06:35;6.35;;;3.88;;
59442;SDS011;45247;47.466;19.004;2022-08-04T01:09:24;5.72;;;4.07;;
59442;SDS011;45247;47.466;19.004;2022-08-04T01:12:05;7.80;;;4.00;;
59442;SDS011;45247;47.466;19.004;2022-08-04T01:14:46;5.75;;;3.70;;
59442;SDS011;45247;47.466;19.004;2022-08-04T01:17:23;6.30;;;3.90;;
59442;SDS011;45247;47.466;19.004;2022-08-04T01:19:53;4.63;;;3.80;;
59442;SDS011;45247;47.466;19.004;2022-08-04T01:22:45;5.78;;;4.03;;
59442;SDS011;45247;47.466;19.004;2022-08-04T01:28:58;7.28;;;4.50;;
59442;SDS011;45247;47.466;19.004;2022-08-04T01:31:35;6.18;;;3.88;;
59442;SDS011;45247;47.466;19.004;2022-08-04T01:34:13;5.95;;;3.97;;
59442;SDS011;45247;47.466;19.004;2022-08-04T01:36:46;8.75;;;4.00;;
59442;SDS011;45247;47.466;19.004;2022-08-04T01:39:21;5.15;;;4.28;;
59442;SDS011;45247;47.466;19.004;2022-08-04T01:42:08;6.35;;;3.80;;
59442;SDS011;45247;47.466;19.004;2022-08-04T01:44:58;6.38;;;4.05;;
59442;SDS011;45247;47.466;19.004;2022-08-04T01:47:29;4.90;;;3.90;;
59442;SDS011;45247;47.466;19.004;2022-08-04T01:50:04;8.05;;;3.83;;
59442;SDS011;45247;47.466;19.004;2022-08-04T01:52:34;5.38;;;3.83;;
59442;SDS011;45247;47.466;19.004;2022-08-04T01:55:05;7.82;;;3.72;;
59442;SDS011;45247;47.466;19.004;2022-08-04T01:57:36;5.33;;;4.13;;
59442;SDS011;45247;47.466;19.004;2022-08-04T02:00:10;8.40;;;3.97;;
59442;SDS011;45247;47.466;19.004;2022-08-04T02:02:39;5.45;;;4.00;;
59442;SDS011;45247;47.466;19.004;2022-08-04T02:05:08;8.32;;;4.22;;
59442;SDS011;45247;47.466;19.004;2022-08-04T02:07:46;6.47;;;4.00;;
59442;SDS011;45247;47.466;19.004;2022-08-04T02:10:46;7.57;;;3.60;;
59442;SDS011;45247;47.466;19.004;2022-08-04T02:13:26;6.53;;;3.60;;
59442;SDS011;45247;47.466;19.004;2022-08-04T02:16:07;6.60;;;3.95;;
59442;SDS011;45247;47.466;19.004;2022-08-04T02:18:43;8.57;;;3.65;;
59442;SDS011;45247;47.466;19.004;2022-08-04T02:21:22;6.13;;;3.83;;
59442;SDS011;45247;47.466;19.004;2022-08-04T02:24:08;7.30;;;3.78;;
59442;SDS011;45247;47.466;19.004;2022-08-04T02:26:41;4.18;;;3.28;;
59442;SDS011;45247;47.466;19.004;2022-08-04T02:29:15;6.75;;;3.72;;
59442;SDS011;45247;47.466;19.004;2022-08-04T02:31:48;4.70;;;3.17;;
59442;SDS011;45247;47.466;19.004;2022-08-04T02:34:21;10.88;;;3.63;;
59442;SDS011;45247;47.466;19.004;2022-08-04T02:36:54;8.05;;;3.45;;
59442;SDS011;45247;47.466;19.004;2022-08-04T02:39:24;5.35;;;3.50;;
59442;SDS011;45247;47.466;19.004;2022-08-04T02:42:13;4.70;;;3.38;;
59442;SDS011;45247;47.466;19.004;2022-08-04T02:44:44;6.50;;;3.53;;
59442;SDS011;45247;47.466;19.004;2022-08-04T02:47:18;4.95;;;3.63;;
59442;SDS011;45247;47.466;19.004;2022-08-04T02:50:08;7.68;;;3.20;;
59442;SDS011;45247;47.466;19.004;2022-08-04T02:52:54;6.50;;;3.28;;
59442;SDS011;45247;47.466;19.004;2022-08-04T02:55:24;7.55;;;3.50;;
59442;SDS011;45247;47.466;19.004;2022-08-04T02:57:55;6.38;;;3.22;;
59442;SDS011;45247;47.466;19.004;2022-08-04T03:00:25;4.20;;;3.15;;
59442;SDS011;45247;47.466;19.004;2022-08-04T03:03:07;6.70;;;3.40;;
59442;SDS011;45247;47.466;19.004;2022-08-04T03:05:47;4.82;;;3.22;;
59442;SDS011;45247;47.466;19.004;2022-08-04T03:17:58;8.98;;;3.63;;
59442;SDS011;45247;47.466;19.004;2022-08-04T03:26:52;5.03;;;3.25;;
59442;SDS011;45247;47.466;19.004;2022-08-04T03:35:40;6.78;;;3.25;;
59442;SDS011;45247;47.466;19.004;2022-08-04T03:38:42;4.15;;;3.40;;
59442;SDS011;45247;47.466;19.004;2022-08-04T03:41:37;5.20;;;3.38;;
59442;SDS011;45247;47.466;19.004;2022-08-04T03:44:42;7.10;;;3.42;;
59442;SDS011;45247;47.466;19.004;2022-08-04T03:54:31;10.90;;;3.38;;
59442;SDS011;45247;47.466;19.004;2022-08-04T04:00:12;4.68;;;3.22;;
59442;SDS011;45247;47.466;19.004;2022-08-04T04:09:04;7.55;;;3.22;;
59442;SDS011;45247;47.466;19.004;2022-08-04T04:12:17;4.47;;;3.00;;
59442;SDS011;45247;47.466;19.004;2022-08-04T04:15:02;4.88;;;2.95;;
59442;SDS011;45247;47.466;19.004;2022-08-04T04:18:05;5.43;;;2.60;;
59442;SDS011;45247;47.466;19.004;2022-08-04T04:23:45;7.60;;;2.88;;
59442;SDS011;45247;47.466;19.004;2022-08-04T04:26:34;4.28;;;2.72;;
59442;SDS011;45247;47.466;19.004;2022-08-04T04:29:16;6.90;;;2.92;;
59442;SDS011;45247;47.466;19.004;2022-08-04T04:31:58;5.10;;;2.60;;
59442;SDS011;45247;47.466;19.004;2022-08-04T04:34:41;4.45;;;2.83;;
59442;SDS011;45247;47.466;19.004;2022-08-04T04:37:24;4.37;;;2.53;;
59442;SDS011;45247;47.466;19.004;2022-08-04T04:40:19;4.55;;;3.03;;
59442;SDS011;45247;47.466;19.004;2022-08-04T04:43:10;6.22;;;2.85;;
59442;SDS011;45247;47.466;19.004;2022-08-04T04:45:48;7.28;;;3.00;;
59442;SDS011;45247;47.466;19.004;2022-08-04T04:48:25;6.72;;;2.67;;
59442;SDS011;45247;47.466;19.004;2022-08-04T04:51:05;3.60;;;2.63;;
59442;SDS011;45247;47.466;19.004;2022-08-04T04:53:43;7.50;;;2.70;;
59442;SDS011;45247;47.466;19.004;2022-08-04T04:56:15;6.70;;;3.00;;
59442;SDS011;45247;47.466;19.004;2022-08-04T04:58:51;6.18;;;2.80;;
59442;SDS011;45247;47.466;19.004;2022-08-04T05:01:43;5.20;;;2.90;;
59442;SDS011;45247;47.466;19.004;2022-08-04T05:04:24;3.53;;;2.22;;
59442;SDS011;45247;47.466;19.004;2022-08-04T05:07:29;7.25;;;2.67;;
59442;SDS011;45247;47.466;19.004;2022-08-04T05:10:21;3.70;;;2.80;;
59442;SDS011;45247;47.466;19.004;2022-08-04T05:13:10;10.40;;;2.88;;
59442;SDS011;45247;47.466;19.004;2022-08-04T05:16:14;3.40;;;2.42;;
59442;SDS011;45247;47.466;19.004;2022-08-04T05:18:46;3.50;;;2.63;;
59442;SDS011;45247;47.466;19.004;2022-08-04T05:21:27;3.60;;;2.42;;
59442;SDS011;45247;47.466;19.004;2022-08-04T05:24:07;11.35;;;2.75;;
59442;SDS011;45247;47.466;19.004;2022-08-04T05:26:38;5.18;;;2.80;;
59442;SDS011;45247;47.466;19.004;2022-08-04T05:29:10;6.70;;;2.67;;
59442;SDS011;45247;47.466;19.004;2022-08-04T05:31:46;5.35;;;2.65;;
59442;SDS011;45247;47.466;19.004;2022-08-04T05:34:19;10.88;;;2.97;;
59442;SDS011;45247;47.466;19.004;2022-08-04T05:36:51;4.45;;;2.45;;
59442;SDS011;45247;47.466;19.004;2022-08-04T05:39:24;6.43;;;2.63;;
59442;SDS011;45247;47.466;19.004;2022-08-04T05:41:59;7.53;;;2.80;;
59442;SDS011;45247;47.466;19.004;2022-08-04T05:44:30;4.72;;;2.58;;
59442;SDS011;45247;47.466;19.004;2022-08-04T05:47:02;4.53;;;2.45;;
59442;SDS011;45247;47.466;19.004;2022-08-04T05:49:33;4.78;;;2.50;;
59442;SDS011;45247;47.466;19.004;2022-08-04T05:52:02;5.18;;;2.97;;
59442;SDS011;45247;47.466;19.004;2022-08-04T05:54:32;4.22;;;2.30;;
59442;SDS011;45247;47.466;19.004;2022-08-04T05:57:02;8.43;;;2.60;;
59442;SDS011;45247;47.466;19.004;2022-08-04T05:59:32;9.95;;;2.58;;
59442;SDS011;45247;47.466;19.004;2022-08-04T06:02:04;5.47;;;2.50;;
59442;SDS011;45247;47.466;19.004;2022-08-04T06:04:35;5.43;;;3.10;;
59442;SDS011;45247;47.466;19.004;2022-08-04T06:09:34;4.68;;;2.72;;
59442;SDS011;45247;47.466;19.004;2022-08-04T06:12:03;5.75;;;2.60;;
59442;SDS011;45247;47.466;19.004;2022-08-04T06:14:37;8.15;;;2.80;;
59442;SDS011;45247;47.466;19.004;2022-08-04T06:17:10;5.60;;;2.70;;
59442;SDS011;45247;47.466;19.004;2022-08-04T06:20:02;7.30;;;2.13;;
59442;SDS011;45247;47.466;19.004;2022-08-04T06:22:46;6.05;;;2.45;;
59442;SDS011;45247;47.466;19.004;2022-08-04T06:25:19;5.15;;;2.75;;
59442;SDS011;45247;47.466;19.004;2022-08-04T06:30:20;5.38;;;2.90;;
59442;SDS011;45247;47.466;19.004;2022-08-04T06:32:53;8.80;;;2.58;;
59442;SDS011;45247;47.466;19.004;2022-08-04T06:35:30;11.60;;;2.60;;
59442;SDS011;45247;47.466;19.004;2022-08-04T06:37:59;8.00;;;2.90;;
59442;SDS011;45247;47.466;19.004;2022-08-04T06:40:29;6.32;;;2.80;;
59442;SDS011;45247;47.466;19.004;2022-08-04T06:43:00;5.70;;;2.50;;
59442;SDS011;45247;47.466;19.004;2022-08-04T06:45:30;5.07;;;2.80;;
59442;SDS011;45247;47.466;19.004;2022-08-04T06:48:02;7.32;;;2.80;;
59442;SDS011;45247;47.466;19.004;2022-08-04T06:50:33;14.10;;;3.08;;
59442;SDS011;45247;47.466;19.004;2022-08-04T06:53:23;5.13;;;2.33;;
59442;SDS011;45247;47.466;19.004;2022-08-04T06:55:52;5.68;;;2.97;;
59442;SDS011;45247;47.466;19.004;2022-08-04T06:58:23;6.93;;;2.53;;
59442;SDS011;45247;47.466;19.004;2022-08-04T07:00:52;6.65;;;2.58;;
59442;SDS011;45247;47.466;19.004;2022-08-04T07:03:28;13.43;;;2.47;;
59442;SDS011;45247;47.466;19.004;2022-08-04T07:05:58;8.02;;;3.28;;
59442;SDS011;45247;47.466;19.004;2022-08-04T07:08:33;6.22;;;2.40;;
59442;SDS011;45247;47.466;19.004;2022-08-04T07:11:02;6.53;;;2.42;;
59442;SDS011;45247;47.466;19.004;2022-08-04T07:13:31;9.80;;;2.33;;
59442;SDS011;45247;47.466;19.004;2022-08-04T07:16:00;8.38;;;2.50;;
59442;SDS011;45247;47.466;19.004;2022-08-04T07:18:30;5.85;;;2.35;;
59442;SDS011;45247;47.466;19.004;2022-08-04T07:20:59;6.47;;;2.50;;
59442;SDS011;45247;47.466;19.004;2022-08-04T07:23:27;7.00;;;2.35;;
59442;SDS011;45247;47.466;19.004;2022-08-04T07:25:56;9.00;;;2.80;;
59442;SDS011;45247;47.466;19.004;2022-08-04T07:28:39;5.45;;;2.40;;
59442;SDS011;45247;47.466;19.004;2022-08-04T07:31:12;6.10;;;2.28;;
59442;SDS011;45247;47.466;19.004;2022-08-04T07:34:02;6.32;;;2.40;;
59442;SDS011;45247;47.466;19.004;2022-08-04T07:36:47;5.72;;;2.20;;
59442;SDS011;45247;47.466;19.004;2022-08-04T07:39:18;5.78;;;2.30;;
59442;SDS011;45247;47.466;19.004;2022-08-04T07:41:55;4.85;;;2.30;;
59442;SDS011;45247;47.466;19.004;2022-08-04T07:44:27;7.28;;;2.55;;
59442;SDS011;45247;47.466;19.004;2022-08-04T07:46:56;5.32;;;2.45;;
59442;SDS011;45247;47.466;19.004;2022-08-04T07:49:26;3.40;;;2.10;;
59442;SDS011;45247;47.466;19.004;2022-08-04T07:52:14;6.22;;;2.58;;
59442;SDS011;45247;47.466;19.004;2022-08-04T07:54:43;5.80;;;2.42;;
59442;SDS011;45247;47.466;19.004;2022-08-04T07:57:11;4.80;;;2.58;;
59442;SDS011;45247;47.466;19.004;2022-08-04T07:59:59;7.32;;;2.45;;
59442;SDS011;45247;47.466;19.004;2022-08-04T08:02:27;3.25;;;2.00;;
59442;SDS011;45247;47.466;19.004;2022-08-04T08:04:58;6.50;;;2.80;;
59442;SDS011;45247;47.466;19.004;2022-08-04T08:07:27;12.80;;;2.67;;
59442;SDS011;45247;47.466;19.004;2022-08-04T08:09:55;5.68;;;2.72;;
59442;SDS011;45247;47.466;19.004;2022-08-04T08:12:23;5.35;;;2.63;;
59442;SDS011;45247;47.466;19.004;2022-08-04T08:15:12;7.47;;;2.13;;
59442;SDS011;45247;47.466;19.004;2022-08-04T08:17:41;3.67;;;2.30;;
59442;SDS011;45247;47.466;19.004;2022-08-04T08:20:27;7.47;;;2.60;;
59442;SDS011;45247;47.466;19.004;2022-08-04T08:22:57;4.93;;;2.63;;
59442;SDS011;45247;47.466;19.004;2022-08-04T08:25:25;5.05;;;2.45;;
59442;SDS011;45247;47.466;19.004;2022-08-04T08:27:54;7.65;;;2.70;;
59442;SDS011;45247;47.466;19.004;2022-08-04T08:30:22;6.15;;;2.22;;
59442;SDS011;45247;47.466;19.004;2022-08-04T08:32:58;9.98;;;2.85;;
59442;SDS011;45247;47.466;19.004;2022-08-04T08:35:33;4.95;;;2.60;;
59442;SDS011;45247;47.466;19.004;2022-08-04T08:38:20;8.75;;;3.15;;
59442;SDS011;45247;47.466;19.004;2022-08-04T08:40:57;6.35;;;2.60;;
59442;SDS011;45247;47.466;19.004;2022-08-04T08:43:45;7.55;;;2.70;;
59442;SDS011;45247;47.466;19.004;2022-08-04T08:46:44;6.78;;;2.85;;
59442;SDS011;45247;47.466;19.004;2022-08-04T08:52:33;6.70;;;2.50;;
59442;SDS011;45247;47.466;19.004;2022-08-04T08:55:28;5.32;;;2.80;;
59442;SDS011;45247;47.466;19.004;2022-08-04T08:58:10;7.38;;;3.03;;
59442;SDS011;45247;47.466;19.004;2022-08-04T09:00:52;6.35;;;2.40;;
59442;SDS011;45247;47.466;19.004;2022-08-04T09:03:40;8.27;;;2.80;;
59442;SDS011;45247;47.466;19.004;2022-08-04T09:06:30;5.65;;;2.65;;
59442;SDS011;45247;47.466;19.004;2022-08-04T09:09:24;6.15;;;2.53;;
59442;SDS011;45247;47.466;19.004;2022-08-04T09:12:08;6.65;;;2.55;;
59442;SDS011;45247;47.466;19.004;2022-08-04T09:14:51;5.10;;;2.38;;
59442;SDS011;45247;47.466;19.004;2022-08-04T09:17:26;6.93;;;3.00;;
59442;SDS011;45247;47.466;19.004;2022-08-04T09:19:58;7.70;;;2.20;;
59442;SDS011;45247;47.466;19.004;2022-08-04T09:22:32;4.50;;;2.65;;
59442;SDS011;45247;47.466;19.004;2022-08-04T09:25:08;5.03;;;2.40;;
59442;SDS011;45247;47.466;19.004;2022-08-04T09:27:43;5.72;;;2.40;;
59442;SDS011;45247;47.466;19.004;2022-08-04T09:30:17;5.57;;;2.28;;
59442;SDS011;45247;47.466;19.004;2022-08-04T09:32:52;8.13;;;2.60;;
59442;SDS011;45247;47.466;19.004;2022-08-04T09:35:29;5.15;;;2.65;;
59442;SDS011;45247;47.466;19.004;2022-08-04T09:38:13;10.70;;;2.45;;
59442;SDS011;45247;47.466;19.004;2022-08-04T09:40:48;5.22;;;2.55;;
59442;SDS011;45247;47.466;19.004;2022-08-04T09:43:26;5.72;;;2.38;;
59442;SDS011;45247;47.466;19.004;2022-08-04T09:46:21;7.70;;;3.03;;
59442;SDS011;45247;47.466;19.004;2022-08-04T09:48:54;5.47;;;2.63;;
59442;SDS011;45247;47.466;19.004;2022-08-04T09:51:35;11.27;;;3.17;;
59442;SDS011;45247;47.466;19.004;2022-08-04T09:54:26;6.53;;;4.22;;
59442;SDS011;45247;47.466;19.004;2022-08-04T09:57:11;4.07;;;2.42;;
59442;SDS011;45247;47.466;19.004;2022-08-04T09:59:44;5.00;;;2.50;;
59442;SDS011;45247;47.466;19.004;2022-08-04T10:02:20;6.35;;;2.50;;
59442;SDS011;45247;47.466;19.004;2022-08-04T10:04:51;8.25;;;2.80;;
59442;SDS011;45247;47.466;19.004;2022-08-04T10:07:26;4.57;;;2.70;;
59442;SDS011;45247;47.466;19.004;2022-08-04T10:10:28;6.97;;;2.63;;
59442;SDS011;45247;47.466;19.004;2022-08-04T10:13:15;5.75;;;2.50;;
59442;SDS011;45247;47.466;19.004;2022-08-04T10:18:47;3.47;;;2.60;;
59442;SDS011;45247;47.466;19.004;2022-08-04T10:21:35;4.90;;;2.78;;
59442;SDS011;45247;47.466;19.004;2022-08-04T10:24:29;4.32;;;2.40;;
59442;SDS011;45247;47.466;19.004;2022-08-04T10:27:06;3.40;;;2.47;;
59442;SDS011;45247;47.466;19.004;2022-08-04T10:29:42;4.80;;;3.13;;
59442;SDS011;45247;47.466;19.004;2022-08-04T10:32:13;7.35;;;2.83;;
59442;SDS011;45247;47.466;19.004;2022-08-04T10:34:47;3.47;;;2.50;;
59442;SDS011;45247;47.466;19.004;2022-08-04T10:37:28;4.28;;;2.40;;
59442;SDS011;45247;47.466;19.004;2022-08-04T10:40:22;6.78;;;2.60;;
59442;SDS011;45247;47.466;19.004;2022-08-04T10:43:04;5.35;;;2.70;;
59442;SDS011;45247;47.466;19.004;2022-08-04T10:45:51;9.00;;;2.80;;
59442;SDS011;45247;47.466;19.004;2022-08-04T10:48:26;4.55;;;2.70;;
59442;SDS011;45247;47.466;19.004;2022-08-04T10:51:02;6.15;;;2.72;;
59442;SDS011;45247;47.466;19.004;2022-08-04T10:53:37;4.53;;;2.55;;
59442;SDS011;45247;47.466;19.004;2022-08-04T10:56:08;7.50;;;2.80;;
59442;SDS011;45247;47.466;19.004;2022-08-04T10:58:41;5.32;;;2.72;;
59442;SDS011;45247;47.466;19.004;2022-08-04T11:01:18;9.13;;;2.75;;
59442;SDS011;45247;47.466;19.004;2022-08-04T11:04:14;4.03;;;2.65;;
59442;SDS011;45247;47.466;19.004;2022-08-04T11:09:22;6.53;;;2.90;;
59442;SDS011;45247;47.466;19.004;2022-08-04T11:11:52;9.00;;;3.10;;
59442;SDS011;45247;47.466;19.004;2022-08-04T11:14:28;3.55;;;2.55;;
59442;SDS011;45247;47.466;19.004;2022-08-04T11:17:06;9.02;;;2.53;;
59442;SDS011;45247;47.466;19.004;2022-08-04T11:19:41;5.43;;;2.80;;
59442;SDS011;45247;47.466;19.004;2022-08-04T11:22:22;5.10;;;2.75;;
59442;SDS011;45247;47.466;19.004;2022-08-04T11:24:53;4.45;;;2.78;;
59442;SDS011;45247;47.466;19.004;2022-08-04T11:27:32;5.82;;;2.75;;
59442;SDS011;45247;47.466;19.004;2022-08-04T11:30:07;4.05;;;2.75;;
59442;SDS011;45247;47.466;19.004;2022-08-04T11:32:44;8.32;;;3.10;;
59442;SDS011;45247;47.466;19.004;2022-08-04T11:35:21;4.70;;;2.78;;
59442;SDS011;45247;47.466;19.004;2022-08-04T11:38:01;3.58;;;2.70;;
59442;SDS011;45247;47.466;19.004;2022-08-04T11:40:36;4.78;;;2.80;;
59442;SDS011;45247;47.466;19.004;2022-08-04T11:43:31;6.95;;;2.88;;
59442;SDS011;45247;47.466;19.004;2022-08-04T11:46:26;6.28;;;3.10;;
59442;SDS011;45247;47.466;19.004;2022-08-04T11:49:04;9.13;;;3.17;;
59442;SDS011;45247;47.466;19.004;2022-08-04T11:51:34;8.48;;;2.90;;
59442;SDS011;45247;47.466;19.004;2022-08-04T11:54:03;6.50;;;3.33;;
59442;SDS011;45247;47.466;19.004;2022-08-04T11:56:32;20.70;;;3.45;;
59442;SDS011;45247;47.466;19.004;2022-08-04T11:59:04;6.47;;;2.65;;
59442;SDS011;45247;47.466;19.004;2022-08-04T12:01:41;10.23;;;3.33;;
59442;SDS011;45247;47.466;19.004;2022-08-04T12:04:23;5.72;;;2.97;;
59442;SDS011;45247;47.466;19.004;2022-08-04T12:07:05;6.30;;;2.80;;
59442;SDS011;45247;47.466;19.004;2022-08-04T12:09:57;6.90;;;3.00;;
59442;SDS011;45247;47.466;19.004;2022-08-04T12:15:22;4.93;;;3.15;;
59442;SDS011;45247;47.466;19.004;2022-08-04T12:17:57;6.15;;;3.25;;
59442;SDS011;45247;47.466;19.004;2022-08-04T12:20:38;5.57;;;3.00;;
59442;SDS011;45247;47.466;19.004;2022-08-04T12:23:12;5.05;;;3.20;;
59442;SDS011;45247;47.466;19.004;2022-08-04T12:25:49;3.58;;;2.95;;
59442;SDS011;45247;47.466;19.004;2022-08-04T12:28:25;8.27;;;3.00;;
59442;SDS011;45247;47.466;19.004;2022-08-04T12:31:19;4.18;;;3.08;;
59442;SDS011;45247;47.466;19.004;2022-08-04T12:33:53;7.53;;;3.63;;
59442;SDS011;45247;47.466;19.004;2022-08-04T12:36:34;8.20;;;3.22;;
59442;SDS011;45247;47.466;19.004;2022-08-04T12:39:08;7.30;;;3.10;;
59442;SDS011;45247;47.466;19.004;2022-08-04T12:41:41;6.10;;;2.97;;
59442;SDS011;45247;47.466;19.004;2022-08-04T12:44:15;12.38;;;3.05;;
59442;SDS011;45247;47.466;19.004;2022-08-04T12:47:03;4.57;;;2.95;;
59442;SDS011;45247;47.466;19.004;2022-08-04T12:49:55;11.23;;;3.13;;
59442;SDS011;45247;47.466;19.004;2022-08-04T12:52:32;9.02;;;3.15;;
59442;SDS011;45247;47.466;19.004;2022-08-04T12:55:28;6.63;;;3.30;;
59442;SDS011;45247;47.466;19.004;2022-08-04T12:57:57;5.47;;;2.88;;
59442;SDS011;45247;47.466;19.004;2022-08-04T13:00:28;6.95;;;3.05;;
59442;SDS011;45247;47.466;19.004;2022-08-04T13:03:10;9.05;;;3.72;;
59442;SDS011;45247;47.466;19.004;2022-08-04T13:05:41;7.68;;;2.78;;
59442;SDS011;45247;47.466;19.004;2022-08-04T13:08:13;7.25;;;2.70;;
59442;SDS011;45247;47.466;19.004;2022-08-04T13:10:46;4.57;;;3.30;;
59442;SDS011;45247;47.466;19.004;2022-08-04T13:13:17;6.07;;;3.20;;
59442;SDS011;45247;47.466;19.004;2022-08-04T13:15:54;5.63;;;3.00;;
59442;SDS011;45247;47.466;19.004;2022-08-04T13:18:24;5.85;;;2.90;;
59442;SDS011;45247;47.466;19.004;2022-08-04T13:21:08;6.85;;;2.92;;
59442;SDS011;45247;47.466;19.004;2022-08-04T13:23:49;4.47;;;3.03;;
59442;SDS011;45247;47.466;19.004;2022-08-04T13:26:45;9.82;;;3.20;;
59442;SDS011;45247;47.466;19.004;2022-08-04T13:29:21;6.05;;;3.10;;
59442;SDS011;45247;47.466;19.004;2022-08-04T13:32:14;5.72;;;2.90;;
59442;SDS011;45247;47.466;19.004;2022-08-04T13:34:43;8.93;;;2.83;;
59442;SDS011;45247;47.466;19.004;2022-08-04T13:37:18;5.60;;;3.20;;
59442;SDS011;45247;47.466;19.004;2022-08-04T13:39:53;6.20;;;3.00;;
59442;SDS011;45247;47.466;19.004;2022-08-04T13:42:24;5.18;;;2.90;;
59442;SDS011;45247;47.466;19.004;2022-08-04T13:44:55;5.28;;;3.20;;
59442;SDS011;45247;47.466;19.004;2022-08-04T13:47:26;5.35;;;3.28;;
59442;SDS011;45247;47.466;19.004;2022-08-04T13:50:13;4.93;;;3.10;;
59442;SDS011;45247;47.466;19.004;2022-08-04T13:52:45;5.20;;;3.35;;
59442;SDS011;45247;47.466;19.004;2022-08-04T13:55:26;9.20;;;3.30;;
59442;SDS011;45247;47.466;19.004;2022-08-04T13:57:57;7.68;;;2.97;;
59442;SDS011;45247;47.466;19.004;2022-08-04T14:00:37;8.00;;;3.00;;
59442;SDS011;45247;47.466;19.004;2022-08-04T14:03:11;8.68;;;3.22;;
59442;SDS011;45247;47.466;19.004;2022-08-04T14:06:09;4.97;;;3.10;;
59442;SDS011;45247;47.466;19.004;2022-08-04T14:08:51;5.28;;;3.00;;
59442;SDS011;45247;47.466;19.004;2022-08-04T14:11:32;6.72;;;3.20;;
59442;SDS011;45247;47.466;19.004;2022-08-04T14:14:23;6.72;;;2.97;;
59442;SDS011;45247;47.466;19.004;2022-08-04T14:16:54;5.78;;;3.25;;
59442;SDS011;45247;47.466;19.004;2022-08-04T14:19:24;5.60;;;2.80;;
59442;SDS011;45247;47.466;19.004;2022-08-04T14:22:01;6.10;;;3.15;;
59442;SDS011;45247;47.466;19.004;2022-08-04T14:24:29;4.80;;;3.30;;
59442;SDS011;45247;47.466;19.004;2022-08-04T14:26:59;4.63;;;3.00;;
59442;SDS011;45247;47.466;19.004;2022-08-04T14:29:35;5.85;;;3.10;;
59442;SDS011;45247;47.466;19.004;2022-08-04T14:32:05;7.10;;;3.08;;
59442;SDS011;45247;47.466;19.004;2022-08-04T14:34:51;11.38;;;2.75;;
59442;SDS011;45247;47.466;19.004;2022-08-04T14:37:19;6.97;;;2.60;;
59442;SDS011;45247;47.466;19.004;2022-08-04T14:39:49;5.70;;;2.75;;
59442;SDS011;45247;47.466;19.004;2022-08-04T14:42:42;7.32;;;2.90;;
59442;SDS011;45247;47.466;19.004;2022-08-04T14:45:28;7.47;;;4.53;;
59442;SDS011;45247;47.466;19.004;2022-08-04T14:47:58;4.72;;;3.20;;
59442;SDS011;45247;47.466;19.004;2022-08-04T14:50:31;4.82;;;3.05;;
59442;SDS011;45247;47.466;19.004;2022-08-04T14:53:01;3.90;;;3.20;;
59442;SDS011;45247;47.466;19.004;2022-08-04T14:55:31;4.57;;;3.20;;
59442;SDS011;45247;47.466;19.004;2022-08-04T14:58:00;5.18;;;3.03;;
59442;SDS011;45247;47.466;19.004;2022-08-04T15:00:49;8.48;;;3.13;;
59442;SDS011;45247;47.466;19.004;2022-08-04T15:03:19;4.40;;;3.00;;
59442;SDS011;45247;47.466;19.004;2022-08-04T15:05:50;7.50;;;3.20;;
59442;SDS011;45247;47.466;19.004;2022-08-04T15:08:29;5.70;;;3.00;;
59442;SDS011;45247;47.466;19.004;2022-08-04T15:10:58;8.63;;;3.10;;
59442;SDS011;45247;47.466;19.004;2022-08-04T15:13:30;3.67;;;2.80;;
59442;SDS011;45247;47.466;19.004;2022-08-04T15:15:59;5.90;;;2.90;;
59442;SDS011;45247;47.466;19.004;2022-08-04T15:18:33;6.28;;;2.92;;
59442;SDS011;45247;47.466;19.004;2022-08-04T15:21:04;4.65;;;3.15;;
59442;SDS011;45247;47.466;19.004;2022-08-04T15:23:33;3.70;;;2.90;;
59442;SDS011;45247;47.466;19.004;2022-08-04T15:26:05;6.88;;;3.17;;
59442;SDS011;45247;47.466;19.004;2022-08-04T15:28:38;5.57;;;2.88;;
59442;SDS011;45247;47.466;19.004;2022-08-04T15:31:08;4.32;;;3.03;;
59442;SDS011;45247;47.466;19.004;2022-08-04T15:33:58;6.35;;;3.05;;
59442;SDS011;45247;47.466;19.004;2022-08-04T15:36:29;6.18;;;2.85;;
59442;SDS011;45247;47.466;19.004;2022-08-04T15:39:04;5.35;;;3.13;;
59442;SDS011;45247;47.466;19.004;2022-08-04T15:41:41;11.93;;;3.00;;
59442;SDS011;45247;47.466;19.004;2022-08-04T15:47:31;5.22;;;2.95;;
59442;SDS011;45247;47.466;19.004;2022-08-04T15:50:03;4.05;;;3.05;;
59442;SDS011;45247;47.466;19.004;2022-08-04T15:55:38;3.70;;;2.58;;
59442;SDS011;45247;47.466;19.004;2022-08-04T15:58:09;3.93;;;3.00;;
59442;SDS011;45247;47.466;19.004;2022-08-04T16:03:45;4.50;;;3.00;;
59442;SDS011;45247;47.466;19.004;2022-08-04T16:09:30;3.65;;;2.78;;
59442;SDS011;45247;47.466;19.004;2022-08-04T16:12:14;4.32;;;2.83;;
59442;SDS011;45247;47.466;19.004;2022-08-04T16:15:36;5.70;;;2.95;;
59442;SDS011;45247;47.466;19.004;2022-08-04T16:18:10;8.13;;;3.15;;
59442;SDS011;45247;47.466;19.004;2022-08-04T16:20:53;7.78;;;3.42;;
59442;SDS011;45247;47.466;19.004;2022-08-04T16:23:38;6.80;;;2.70;;
59442;SDS011;45247;47.466;19.004;2022-08-04T16:29:34;6.40;;;3.05;;
59442;SDS011;45247;47.466;19.004;2022-08-04T16:32:15;7.75;;;2.90;;
59442;SDS011;45247;47.466;19.004;2022-08-04T16:34:48;6.88;;;3.47;;
59442;SDS011;45247;47.466;19.004;2022-08-04T16:37:22;5.38;;;3.00;;
59442;SDS011;45247;47.466;19.004;2022-08-04T16:43:01;7.43;;;2.83;;
59442;SDS011;45247;47.466;19.004;2022-08-04T16:45:38;7.20;;;3.00;;
59442;SDS011;45247;47.466;19.004;2022-08-04T16:48:11;5.10;;;3.13;;
59442;SDS011;45247;47.466;19.004;2022-08-04T16:50:55;6.88;;;3.03;;
59442;SDS011;45247;47.466;19.004;2022-08-04T16:53:35;8.30;;;3.25;;
59442;SDS011;45247;47.466;19.004;2022-08-04T16:56:28;8.48;;;2.90;;
59442;SDS011;45247;47.466;19.004;2022-08-04T16:59:04;5.45;;;2.85;;